Terminal Aerodrome Forecast
Issued by NWS

Home | Current Version | Previous Version | Text Only | Print | Product List | Glossary On
Versions: 1 2 3 4 5 6 7 8 9 10 11 12 13 14 15 16 17 18 19 20 21
000
FTUS43 KIND 231720
TAFHUF
TAF
KHUF 231720Z 2318/2418 19008KT P6SM SCT020 BKN040
     FM232300 16006KT P6SM BKN050
     FM240500 17011KT P6SM BKN040
     FM240900 18015G23KT P6SM BKN050
     FM241200 19015G26KT P6SM BKN015
     FM241600 19017G28KT P6SM BKN020=

USA.gov is the U.S. government's official web portal to all federal, state and local government web resources and services.